Time;durP1;ratioP1;P1;durP2;ratioP2;P2;SDS_P1;SDS_P2;PMS_P1;PMS_P2;Temp;Humidity;BMP_temperature;BMP_pressure;BME280_temperature;BME280_humidity;BME280_pressure;Samples;Min_cycle;Max_cycle;Signal;HPM_P1;HPM_P2
2023/04/22 00:00:46;;;;;;;;;;;18.70;56.20;;;;;;6130851;29;20262;-70
2023/04/22 00:03:47;;;;;;;;;;;18.70;56.20;;;;;;6148021;29;19915;-70
2023/04/22 00:06:48;;;;;;;;;;;18.70;56.20;;;;;;6147818;29;19915;-70
2023/04/22 00:09:48;;;;;;;;;;;18.70;56.30;;;;;;6147796;28;19926;-70
2023/04/22 00:12:49;;;;;;;;;;;18.70;56.20;;;;;;6163049;28;19918;-69
2023/04/22 00:15:50;;;;;;;;;;;18.70;56.20;;;;;;6130569;29;19921;-70
2023/04/22 00:18:50;;;;;;;;;;;18.70;56.30;;;;;;6147958;29;19914;-70
2023/04/22 00:21:51;;;;;;;;;;;18.70;56.30;;;;;;6148023;29;19950;-70
2023/04/22 00:24:51;;;;;;;;;;;18.70;56.20;;;;;;6147845;29;19910;-70
2023/04/22 00:27:52;;;;;;;;;;;18.70;56.30;;;;;;6147483;29;19911;-71
2023/04/22 00:30:53;;;;;;;;;;;18.70;56.30;;;;;;6147876;29;20001;-70
2023/04/22 00:33:53;;;;;;;;;;;18.70;56.30;;;;;;6147799;29;19910;-70
2023/04/22 00:36:55;;;;;;;;;;;18.70;56.30;;;;;;6162956;28;19911;-70
2023/04/22 00:39:56;;;;;;;;;;;18.70;56.30;;;;;;6147457;29;19918;-70
2023/04/22 00:42:58;;;;;;;;;;;18.70;56.20;;;;;;6147825;29;20442;-70
2023/04/22 00:45:59;;;;;;;;;;;18.70;56.30;;;;;;6130722;29;19989;-70
2023/04/22 00:49:00;;;;;;;;;;;18.70;56.30;;;;;;6130318;29;20547;-71
2023/04/22 00:52:01;;;;;;;;;;;18.70;56.30;;;;;;6147592;29;19911;-70
2023/04/22 00:55:01;;;;;;;;;;;18.70;56.30;;;;;;6130523;29;20361;-70
2023/04/22 00:58:02;;;;;;;;;;;18.70;56.30;;;;;;6148996;28;19917;-71
2023/04/22 01:01:03;;;;;;;;;;;18.70;56.30;;;;;;6134491;29;20009;-70
2023/04/22 01:04:04;;;;;;;;;;;18.70;56.30;;;;;;6151971;29;20001;-70
2023/04/22 01:07:05;;;;;;;;;;;18.70;56.30;;;;;;6134554;29;20006;-70
2023/04/22 01:10:06;;;;;;;;;;;18.70;56.30;;;;;;6151822;28;20006;-70
2023/04/22 01:13:07;;;;;;;;;;;18.70;56.30;;;;;;6134547;29;19911;-69
2023/04/22 01:16:08;;;;;;;;;;;18.70;56.30;;;;;;6134409;29;20328;-70
2023/04/22 01:19:09;;;;;;;;;;;18.70;56.30;;;;;;6151435;29;19997;-70
2023/04/22 01:22:13;;;;;;;;;;;18.70;56.30;;;;;;6151564;29;20009;-70
2023/04/22 01:25:14;;;;;;;;;;;18.70;56.30;;;;;;6134147;29;19911;-70
2023/04/22 01:28:15;;;;;;;;;;;18.70;56.30;;;;;;6166006;28;19917;-70
2023/04/22 01:31:17;;;;;;;;;;;18.70;56.30;;;;;;6151302;29;19911;-70
2023/04/22 01:34:17;;;;;;;;;;;18.70;56.30;;;;;;6151723;29;19917;-70
2023/04/22 01:37:18;;;;;;;;;;;18.70;56.30;;;;;;6151282;29;19915;-70
2023/04/22 01:40:21;;;;;;;;;;;18.70;56.30;;;;;;6165770;28;19914;-70
2023/04/22 01:43:22;;;;;;;;;;;18.70;56.30;;;;;;6134161;29;19911;-70
2023/04/22 01:46:23;;;;;;;;;;;18.70;56.30;;;;;;6151137;29;19949;-70
2023/04/22 01:49:24;;;;;;;;;;;18.70;56.30;;;;;;6150974;29;20066;-70
2023/04/22 01:52:25;;;;;;;;;;;18.70;56.30;;;;;;6151602;29;19918;-70
2023/04/22 01:55:26;;;;;;;;;;;18.70;56.30;;;;;;6151564;29;19918;-70
2023/04/22 01:58:28;;;;;;;;;;;18.70;56.30;;;;;;6134952;29;19911;-70
2023/04/22 02:01:29;;;;;;;;;;;18.70;56.30;;;;;;6151552;29;19922;-70
2023/04/22 02:04:29;;;;;;;;;;;18.70;56.30;;;;;;6150789;29;19917;-70
2023/04/22 02:07:30;;;;;;;;;;;18.70;56.30;;;;;;6150513;29;20016;-70
2023/04/22 02:10:31;;;;;;;;;;;18.70;56.30;;;;;;6150051;28;19918;-70
2023/04/22 02:13:35;;;;;;;;;;;18.70;56.30;;;;;;6150599;29;19958;-70
2023/04/22 02:16:36;;;;;;;;;;;18.70;56.20;;;;;;6165230;28;20018;-70
2023/04/22 02:19:36;;;;;;;;;;;18.70;56.30;;;;;;6164690;28;19915;-70
2023/04/22 02:22:37;;;;;;;;;;;18.70;56.30;;;;;;6164938;28;19921;-71
2023/04/22 02:25:38;;;;;;;;;;;18.70;56.20;;;;;;6149962;29;20005;-70
2023/04/22 02:28:40;;;;;;;;;;;18.70;56.20;;;;;;6132682;29;19966;-70
2023/04/22 02:31:41;;;;;;;;;;;18.70;56.30;;;;;;6132691;29;19910;-70
2023/04/22 02:34:42;;;;;;;;;;;18.70;56.30;;;;;;6132259;29;20384;-70
2023/04/22 02:37:42;;;;;;;;;;;18.70;56.30;;;;;;6149726;29;19919;-70
2023/04/22 02:40:43;;;;;;;;;;;18.70;56.30;;;;;;6131989;29;19915;-70
2023/04/22 02:43:45;;;;;;;;;;;18.70;56.30;;;;;;6132480;29;19911;-70
2023/04/22 02:46:45;;;;;;;;;;;18.70;56.30;;;;;;6164140;28;19914;-70
2023/04/22 02:49:46;;;;;;;;;;;18.70;56.30;;;;;;6149276;29;19985;-70
2023/04/22 02:52:47;;;;;;;;;;;18.70;56.30;;;;;;6149156;29;20230;-70
2023/04/22 02:55:47;;;;;;;;;;;18.70;56.30;;;;;;6149062;29;20005;-70
2023/04/22 02:58:48;;;;;;;;;;;18.70;56.30;;;;;;6149308;29;19918;-70
2023/04/22 03:01:49;;;;;;;;;;;18.70;56.30;;;;;;6149164;29;19911;-70
2023/04/22 03:04:51;;;;;;;;;;;18.70;56.30;;;;;;6131428;29;19918;-70
2023/04/22 03:07:51;;;;;;;;;;;18.70;56.30;;;;;;6163588;28;19981;-70
2023/04/22 03:10:52;;;;;;;;;;;18.70;56.30;;;;;;6163572;28;19910;-70
2023/04/22 03:13:53;;;;;;;;;;;18.70;56.30;;;;;;6131553;29;19911;-70
2023/04/22 03:16:53;;;;;;;;;;;18.70;56.20;;;;;;6131421;29;20482;-70
2023/04/22 03:19:54;;;;;;;;;;;18.70;56.30;;;;;;6163620;28;19921;-71
2023/04/22 03:22:55;;;;;;;;;;;18.70;56.30;;;;;;6147597;28;20617;-70
2023/04/22 03:25:55;;;;;;;;;;;18.70;56.30;;;;;;6148613;29;20554;-70
2023/04/22 03:28:56;;;;;;;;;;;18.70;56.30;;;;;;6148575;29;19966;-70
2023/04/22 03:31:57;;;;;;;;;;;18.70;56.30;;;;;;6148714;29;19910;-69
2023/04/22 03:34:57;;;;;;;;;;;18.70;56.30;;;;;;6148407;29;19910;-69
2023/04/22 03:37:58;;;;;;;;;;;18.70;56.30;;;;;;6148702;29;20018;-70
2023/04/22 03:40:59;;;;;;;;;;;18.70;56.30;;;;;;6162935;28;19918;-70
2023/04/22 03:43:59;;;;;;;;;;;18.70;56.30;;;;;;6148554;29;19961;-70
2023/04/22 03:47:00;;;;;;;;;;;18.70;56.30;;;;;;6148300;29;19910;-70
2023/04/22 03:50:01;;;;;;;;;;;18.70;56.30;;;;;;6163185;28;19914;-70
2023/04/22 03:53:01;;;;;;;;;;;18.70;56.30;;;;;;6148128;29;19915;-70
2023/04/22 03:56:02;;;;;;;;;;;18.70;56.30;;;;;;6147867;29;19910;-70
2023/04/22 04:02:41;;;;;;;;;;;18.70;56.30;;;;;;6147640;29;19911;-70
2023/04/22 04:05:42;;;;;;;;;;;18.70;56.30;;;;;;6147678;28;19917;-70
2023/04/22 04:08:42;;;;;;;;;;;18.70;56.30;;;;;;6147447;29;19947;-70
2023/04/22 04:11:43;;;;;;;;;;;18.70;56.30;;;;;;6147963;29;19925;-70
2023/04/22 04:14:43;;;;;;;;;;;18.70;56.30;;;;;;6130229;28;20382;-69
2023/04/22 04:17:44;;;;;;;;;;;18.70;56.30;;;;;;6147625;29;19997;-70
2023/04/22 04:20:45;;;;;;;;;;;18.70;56.30;;;;;;6147438;29;19915;-70
2023/04/22 04:23:46;;;;;;;;;;;18.70;56.30;;;;;;6147895;29;19917;-70
2023/04/22 04:26:47;;;;;;;;;;;18.70;56.30;;;;;;6147174;28;20028;-70
2023/04/22 04:29:48;;;;;;;;;;;18.70;56.30;;;;;;6130319;29;19915;-70
2023/04/22 04:32:49;;;;;;;;;;;18.70;56.30;;;;;;6131659;29;20014;-70
2023/04/22 04:35:50;;;;;;;;;;;18.70;56.30;;;;;;6134832;29;19917;-70
2023/04/22 04:38:51;;;;;;;;;;;18.70;56.30;;;;;;6134747;29;19910;-69
2023/04/22 04:41:54;;;;;;;;;;;18.70;56.30;;;;;;6152365;29;19918;-70
2023/04/22 04:44:57;;;;;;;;;;;18.70;56.30;;;;;;6151981;28;19914;-70
2023/04/22 04:47:59;;;;;;;;;;;18.70;56.30;;;;;;6134389;29;20013;-70
2023/04/22 04:51:00;;;;;;;;;;;18.70;56.30;;;;;;6152086;29;20300;-70
2023/04/22 04:54:00;;;;;;;;;;;18.70;56.30;;;;;;6134816;29;19910;-70
2023/04/22 04:57:02;;;;;;;;;;;18.70;56.30;;;;;;6134458;29;19917;-70
2023/04/22 05:00:03;;;;;;;;;;;18.70;56.30;;;;;;6134306;29;19988;-70
2023/04/22 05:03:04;;;;;;;;;;;18.70;56.30;;;;;;6151652;29;19910;-70
2023/04/22 05:06:05;;;;;;;;;;;18.70;56.30;;;;;;6151097;28;19958;-70
2023/04/22 05:09:06;;;;;;;;;;;18.70;56.30;;;;;;6151363;29;19923;-70
2023/04/22 05:12:07;;;;;;;;;;;18.70;56.30;;;;;;6151518;29;20006;-70
2023/04/22 05:15:08;;;;;;;;;;;18.70;56.30;;;;;;6134050;28;20329;-70
2023/04/22 05:18:08;;;;;;;;;;;18.70;56.30;;;;;;6151178;29;19922;-70
2023/04/22 05:21:09;;;;;;;;;;;18.70;56.30;;;;;;6134094;29;19977;-70
2023/04/22 05:24:10;;;;;;;;;;;18.70;56.30;;;;;;6133996;29;19918;-70
2023/04/22 05:27:11;;;;;;;;;;;18.70;56.30;;;;;;6150842;28;20022;-71
2023/04/22 05:30:11;;;;;;;;;;;18.70;56.30;;;;;;6133446;29;20001;-70
2023/04/22 05:33:12;;;;;;;;;;;18.70;56.30;;;;;;6134113;29;20289;-70
2023/04/22 05:36:13;;;;;;;;;;;18.70;56.30;;;;;;6150594;28;19911;-70
2023/04/22 05:39:13;;;;;;;;;;;18.70;56.30;;;;;;6133548;29;19914;-70
2023/04/22 05:42:14;;;;;;;;;;;18.70;56.30;;;;;;6150844;29;19917;-70
2023/04/22 05:45:15;;;;;;;;;;;18.70;56.30;;;;;;6149606;28;19966;-70
2023/04/22 05:48:15;;;;;;;;;;;18.70;56.30;;;;;;6133365;29;19911;-70
2023/04/22 05:51:16;;;;;;;;;;;18.70;56.30;;;;;;6133252;29;19910;-69
2023/04/22 05:54:17;;;;;;;;;;;18.70;56.30;;;;;;6150749;29;19917;-69
2023/04/22 05:57:17;;;;;;;;;;;18.70;56.30;;;;;;6150540;28;19911;-70
2023/04/22 06:00:18;;;;;;;;;;;18.70;56.30;;;;;;6150379;29;19966;-70
2023/04/22 06:03:19;;;;;;;;;;;18.70;56.30;;;;;;6133218;29;19914;-70
2023/04/22 06:06:19;;;;;;;;;;;18.70;56.30;;;;;;6150084;28;19911;-70
2023/04/22 06:09:20;;;;;;;;;;;18.70;56.30;;;;;;6132958;29;20301;-70
2023/04/22 06:12:21;;;;;;;;;;;18.70;56.30;;;;;;6149847;29;20001;-70
2023/04/22 06:15:21;;;;;;;;;;;18.70;56.30;;;;;;6150351;28;19933;-70
2023/04/22 06:18:22;;;;;;;;;;;18.70;56.30;;;;;;6149942;29;19911;-70
2023/04/22 06:21:23;;;;;;;;;;;18.70;56.30;;;;;;6150120;29;20558;-70
2023/04/22 06:24:23;;;;;;;;;;;18.70;56.20;;;;;;6149907;28;19993;-69
2023/04/22 06:27:24;;;;;;;;;;;18.70;56.40;;;;;;6132868;29;19910;-70
2023/04/22 06:30:25;;;;;;;;;;;18.70;56.30;;;;;;6132170;29;20013;-70
2023/04/22 06:33:26;;;;;;;;;;;18.70;56.30;;;;;;6149903;29;19915;-69
2023/04/22 06:36:27;;;;;;;;;;;18.70;56.30;;;;;;6132172;29;19915;-70
2023/04/22 06:39:27;;;;;;;;;;;18.70;57.00;;;;;;6149692;29;20292;-70
2023/04/22 06:42:28;;;;;;;;;;;18.70;56.30;;;;;;6132279;29;19915;-70
2023/04/22 06:45:29;;;;;;;;;;;18.70;56.30;;;;;;6132518;29;19915;-70
2023/04/22 06:48:29;;;;;;;;;;;18.70;56.20;;;;;;6132045;29;19918;-70
2023/04/22 06:51:31;;;;;;;;;;;18.70;56.20;;;;;;6149167;29;19910;-70
2023/04/22 06:54:32;;;;;;;;;;;18.70;56.20;;;;;;6131917;28;19910;-70
2023/04/22 06:57:32;;;;;;;;;;;18.70;56.30;;;;;;6132068;29;20405;-70
2023/04/22 07:00:33;;;;;;;;;;;18.70;56.20;;;;;;6131575;29;19997;-69
2023/04/22 07:03:34;;;;;;;;;;;18.70;56.20;;;;;;6131869;29;19926;-70
2023/04/22 07:06:34;;;;;;;;;;;18.70;56.20;;;;;;6148785;28;20580;-70
2023/04/22 07:09:35;;;;;;;;;;;18.70;56.20;;;;;;6148693;29;20070;-70
2023/04/22 07:12:36;;;;;;;;;;;18.70;56.20;;;;;;6131387;29;19926;-68
2023/04/22 07:15:36;;;;;;;;;;;18.70;56.20;;;;;;6146016;28;19910;-71
2023/04/22 07:18:38;;;;;;;;;;;18.70;56.20;;;;;;6148139;29;19917;-71
2023/04/22 07:21:39;;;;;;;;;;;18.80;56.30;;;;;;6130709;29;20013;-72
2023/04/22 07:24:40;;;;;;;;;;;18.80;56.30;;;;;;6147843;28;20336;-72
2023/04/22 07:27:40;;;;;;;;;;;18.80;56.20;;;;;;6147728;29;20428;-71
2023/04/22 07:30:41;;;;;;;;;;;18.90;56.30;;;;;;6130502;29;19949;-72
2023/04/22 07:33:42;;;;;;;;;;;18.90;56.10;;;;;;6147658;29;19918;-71
2023/04/22 07:36:42;;;;;;;;;;;18.90;56.10;;;;;;6130558;29;19918;-72
2023/04/22 07:39:43;;;;;;;;;;;18.90;56.00;;;;;;6147585;29;19914;-72
2023/04/22 07:42:44;;;;;;;;;;;18.90;56.10;;;;;;6130323;29;20440;-72
2023/04/22 07:45:45;;;;;;;;;;;18.90;55.80;;;;;;6130487;29;20444;-71
2023/04/22 07:48:45;;;;;;;;;;;18.90;55.90;;;;;;6131243;29;19910;-72
2023/04/22 07:51:46;;;;;;;;;;;18.90;56.00;;;;;;6147745;29;19965;-71
2023/04/22 07:54:46;;;;;;;;;;;18.90;56.00;;;;;;6148158;28;19910;-71
2023/04/22 07:57:47;;;;;;;;;;;18.90;56.00;;;;;;6147999;29;19910;-72
2023/04/22 08:00:48;;;;;;;;;;;18.90;56.10;;;;;;6147864;29;19978;-71
2023/04/22 08:03:48;;;;;;;;;;;18.90;56.10;;;;;;6147812;29;19914;-71
2023/04/22 08:06:49;;;;;;;;;;;18.90;56.90;;;;;;6148730;28;19915;-71
2023/04/22 08:09:50;;;;;;;;;;;18.90;57.00;;;;;;6130481;29;19973;-72
2023/04/22 08:12:51;;;;;;;;;;;18.80;56.20;;;;;;6131714;29;19994;-71
2023/04/22 08:15:53;;;;;;;;;;;18.80;56.30;;;;;;6114215;29;20128;-71
2023/04/22 08:18:56;;;;;;;;;;;18.80;56.30;;;;;;6130568;29;19918;-72
2023/04/22 08:21:57;;;;;;;;;;;18.80;56.30;;;;;;6131982;29;20465;-71
2023/04/22 08:24:58;;;;;;;;;;;18.80;56.30;;;;;;6131832;29;19911;-71
2023/04/22 08:27:58;;;;;;;;;;;18.80;56.30;;;;;;6131722;29;19921;-72
2023/04/22 08:30:59;;;;;;;;;;;18.80;56.30;;;;;;6131765;29;20361;-71
2023/04/22 08:34:00;;;;;;;;;;;18.80;56.30;;;;;;6131789;29;19910;-71
2023/04/22 08:37:01;;;;;;;;;;;18.80;56.30;;;;;;6132121;29;19918;-72
2023/04/22 08:40:03;;;;;;;;;;;18.80;56.30;;;;;;6131675;29;20373;-71
2023/04/22 08:43:04;;;;;;;;;;;18.80;56.30;;;;;;6130592;29;19910;-71
2023/04/22 08:46:05;;;;;;;;;;;18.80;56.30;;;;;;6130318;29;20010;-71
2023/04/22 08:49:06;;;;;;;;;;;18.80;56.40;;;;;;6131646;29;19918;-71
2023/04/22 08:52:08;;;;;;;;;;;18.80;56.40;;;;;;6130148;29;19911;-72
2023/04/22 08:55:08;;;;;;;;;;;18.80;56.40;;;;;;6128598;29;19915;-71
2023/04/22 08:58:09;;;;;;;;;;;18.80;56.40;;;;;;6129300;29;19911;-71
2023/04/22 09:01:10;;;;;;;;;;;18.80;56.30;;;;;;6130102;29;19918;-71
2023/04/22 09:04:13;;;;;;;;;;;18.80;56.30;;;;;;6130058;29;19911;-71
2023/04/22 09:07:21;;;;;;;;;;;18.80;57.10;;;;;;6129125;29;20270;-72
2023/04/22 09:10:22;;;;;;;;;;;18.80;56.40;;;;;;6129075;28;19922;-71
2023/04/22 09:13:23;;;;;;;;;;;18.80;56.40;;;;;;6127868;29;19937;-71
2023/04/22 09:16:24;;;;;;;;;;;18.80;56.40;;;;;;6105732;29;19938;-71
2023/04/22 09:19:24;;;;;;;;;;;18.80;56.40;;;;;;6098563;29;20330;-71
2023/04/22 09:22:35;;;;;;;;;;;18.80;56.40;;;;;;6109940;29;19997;-71
2023/04/22 09:25:36;;;;;;;;;;;18.80;56.30;;;;;;6124806;29;20389;-71
2023/04/22 09:28:46;;;;;;;;;;;18.80;56.40;;;;;;6108470;29;19915;-71
2023/04/22 09:31:48;;;;;;;;;;;18.90;56.30;;;;;;6126204;29;19910;-72
2023/04/22 09:34:52;;;;;;;;;;;18.90;56.30;;;;;;6126086;29;19911;-72
2023/04/22 09:37:53;;;;;;;;;;;19.00;56.30;;;;;;6126172;29;19910;-71
2023/04/22 09:40:54;;;;;;;;;;;19.00;56.20;;;;;;6126103;29;20342;-71
2023/04/22 09:43:56;;;;;;;;;;;19.00;56.00;;;;;;6125580;29;19962;-72
2023/04/22 09:46:57;;;;;;;;;;;19.00;56.20;;;;;;6125867;29;19911;-71
2023/04/22 09:50:02;;;;;;;;;;;19.00;56.20;;;;;;6108941;29;19953;-71
2023/04/22 09:53:04;;;;;;;;;;;19.00;56.20;;;;;;6140095;29;19926;-71
2023/04/22 09:56:05;;;;;;;;;;;19.00;56.10;;;;;;6149383;28;19918;-71
2023/04/22 09:59:07;;;;;;;;;;;19.00;56.20;;;;;;6148964;29;19910;-71
2023/04/22 10:02:08;;;;;;;;;;;19.00;56.10;;;;;;6132436;29;19915;-72
2023/04/22 10:05:10;;;;;;;;;;;19.00;56.20;;;;;;6148932;28;19915;-71
2023/04/22 10:08:12;;;;;;;;;;;19.00;56.10;;;;;;6131220;29;19974;-72
2023/04/22 10:11:12;;;;;;;;;;;19.00;56.10;;;;;;6131259;29;19914;-71
2023/04/22 10:14:13;;;;;;;;;;;19.00;56.10;;;;;;6148751;29;19911;-71
2023/04/22 10:17:15;;;;;;;;;;;19.00;56.10;;;;;;6142994;29;19911;-72
2023/04/22 10:20:17;;;;;;;;;;;19.00;56.10;;;;;;6131593;29;19949;-72
2023/04/22 10:23:19;;;;;;;;;;;19.00;56.10;;;;;;6111702;29;19911;-71
2023/04/22 10:26:38;;;;;;;;;;;19.00;56.10;;;;;;6084327;29;19959;-71
2023/04/22 10:29:41;;;;;;;;;;;19.00;56.10;;;;;;6099950;29;19921;-71
2023/04/22 10:32:41;;;;;;;;;;;19.00;56.10;;;;;;6084469;29;19990;-72
2023/04/22 10:36:02;;;;;;;;;;;19.00;56.10;;;;;;6144718;28;19911;-70
2023/04/22 10:39:02;;;;;;;;;;;19.00;56.10;;;;;;6133662;29;19911;-71
2023/04/22 10:42:05;;;;;;;;;;;19.00;56.10;;;;;;6121316;29;19974;-72
2023/04/22 10:45:10;;;;;;;;;;;19.00;56.10;;;;;;6105174;29;20298;-74
2023/04/22 10:48:11;;;;;;;;;;;19.10;56.00;;;;;;6112550;29;20031;-72
2023/04/22 10:51:31;;;;;;;;;;;19.10;56.10;;;;;;6134346;29;19998;-72
2023/04/22 10:54:38;;;;;;;;;;;19.10;56.10;;;;;;6102946;29;19911;-72
2023/04/22 10:57:43;;;;;;;;;;;19.10;56.10;;;;;;6132969;29;19915;-72
2023/04/22 11:00:44;;;;;;;;;;;19.10;56.10;;;;;;6123930;29;19914;-72
2023/04/22 11:03:44;;;;;;;;;;;19.10;56.00;;;;;;6136435;29;19918;-72
2023/04/22 11:06:45;;;;;;;;;;;19.10;56.00;;;;;;6105768;29;19918;-72
2023/04/22 11:09:48;;;;;;;;;;;19.10;56.00;;;;;;6138788;29;19926;-72
2023/04/22 11:12:50;;;;;;;;;;;19.10;56.00;;;;;;6129796;29;19915;-72
2023/04/22 11:15:53;;;;;;;;;;;19.10;56.00;;;;;;6128302;29;20060;-72
2023/04/22 11:18:54;;;;;;;;;;;19.10;56.00;;;;;;6159707;28;19914;-72
2023/04/22 11:21:57;;;;;;;;;;;19.10;56.10;;;;;;6141307;29;19915;-72
2023/04/22 11:24:58;;;;;;;;;;;19.10;56.00;;;;;;6128590;28;19978;-72
2023/04/22 11:27:59;;;;;;;;;;;19.10;56.10;;;;;;6146785;29;19914;-72
2023/04/22 11:31:04;;;;;;;;;;;19.10;56.00;;;;;;6128507;29;20344;-72
2023/04/22 11:34:07;;;;;;;;;;;19.10;56.10;;;;;;6141584;29;20430;-72
2023/04/22 11:37:08;;;;;;;;;;;19.10;56.10;;;;;;6144898;29;19921;-72
2023/04/22 11:40:10;;;;;;;;;;;19.10;56.10;;;;;;6142530;29;20526;-72
2023/04/22 11:43:10;;;;;;;;;;;19.10;56.00;;;;;;6145219;28;19918;-73
2023/04/22 11:46:11;;;;;;;;;;;19.10;56.00;;;;;;6122389;29;19911;-72
2023/04/22 11:49:12;;;;;;;;;;;19.10;56.00;;;;;;6144464;29;19910;-72
2023/04/22 11:52:13;;;;;;;;;;;19.10;56.00;;;;;;6146320;29;19910;-71
2023/04/22 11:55:14;;;;;;;;;;;19.10;56.00;;;;;;6146778;28;19918;-71
2023/04/22 11:58:37;;;;;;;;;;;19.10;56.00;;;;;;6146245;29;20140;-72
2023/04/22 12:01:40;;;;;;;;;;;19.10;56.00;;;;;;6146577;29;19914;-71
2023/04/22 12:04:42;;;;;;;;;;;19.10;55.90;;;;;;6145622;28;20019;-71
2023/04/22 12:07:42;;;;;;;;;;;19.10;56.00;;;;;;6145208;29;19914;-71
2023/04/22 12:10:56;;;;;;;;;;;19.10;56.00;;;;;;6141017;29;19989;-71
2023/04/22 12:14:04;;;;;;;;;;;19.10;56.00;;;;;;6128619;29;19917;-74
2023/04/22 12:17:07;;;;;;;;;;;19.10;56.00;;;;;;6145630;28;20496;-71
2023/04/22 12:20:11;;;;;;;;;;;19.10;56.00;;;;;;6129434;29;19966;-71
2023/04/22 12:23:13;;;;;;;;;;;19.10;56.00;;;;;;6128855;29;20392;-73
2023/04/22 12:26:15;;;;;;;;;;;19.10;56.00;;;;;;6146482;28;19911;-71
2023/04/22 12:29:15;;;;;;;;;;;19.10;55.90;;;;;;6146573;29;20282;-72
2023/04/22 12:32:16;;;;;;;;;;;19.10;55.90;;;;;;6146509;29;19917;-71
2023/04/22 12:35:16;;;;;;;;;;;19.10;55.90;;;;;;6145961;28;19990;-71
2023/04/22 12:38:17;;;;;;;;;;;19.10;56.00;;;;;;6146109;29;19910;-72
2023/04/22 12:41:18;;;;;;;;;;;19.10;56.00;;;;;;6145716;29;19937;-71
2023/04/22 12:44:19;;;;;;;;;;;19.10;55.90;;;;;;6144377;29;19914;-70
2023/04/22 12:47:20;;;;;;;;;;;19.10;55.90;;;;;;6146364;28;19925;-71
2023/04/22 12:50:20;;;;;;;;;;;19.10;55.90;;;;;;6146510;29;20386;-71
2023/04/22 12:53:21;;;;;;;;;;;19.10;55.90;;;;;;6146322;28;20280;-71
2023/04/22 12:56:22;;;;;;;;;;;19.10;55.90;;;;;;6150785;29;19957;-71
2023/04/22 12:59:22;;;;;;;;;;;19.10;55.90;;;;;;6150886;29;19922;-71
2023/04/22 13:02:23;;;;;;;;;;;19.10;55.90;;;;;;6165714;28;19966;-71
2023/04/22 13:05:24;;;;;;;;;;;19.10;55.90;;;;;;6132973;29;19911;-71
2023/04/22 13:08:25;;;;;;;;;;;19.10;55.90;;;;;;6151597;28;19922;-72
2023/04/22 13:11:26;;;;;;;;;;;19.10;55.90;;;;;;6165700;28;20490;-73
2023/04/22 13:14:26;;;;;;;;;;;19.10;55.90;;;;;;6148956;28;19910;-73
2023/04/22 13:17:27;;;;;;;;;;;19.10;55.90;;;;;;6156066;29;19914;-71
2023/04/22 13:20:28;;;;;;;;;;;19.10;55.90;;;;;;6156539;29;19942;-71
2023/04/22 13:23:31;;;;;;;;;;;19.10;55.90;;;;;;6157203;29;19914;-72
2023/04/22 13:26:35;;;;;;;;;;;19.10;55.90;;;;;;6170857;28;19910;-71
2023/04/22 13:29:36;;;;;;;;;;;19.10;55.90;;;;;;6133270;29;19910;-71
2023/04/22 13:32:37;;;;;;;;;;;19.10;55.90;;;;;;6150121;29;19987;-71
2023/04/22 13:35:38;;;;;;;;;;;19.10;55.90;;;;;;6149507;28;19983;-71
2023/04/22 13:38:38;;;;;;;;;;;19.10;55.90;;;;;;6149632;29;19914;-71
2023/04/22 13:41:40;;;;;;;;;;;19.10;55.90;;;;;;6132674;29;19922;-71
2023/04/22 13:44:41;;;;;;;;;;;19.10;55.90;;;;;;6131811;28;19962;-72
2023/04/22 13:47:41;;;;;;;;;;;19.10;55.90;;;;;;6132634;29;20385;-71
2023/04/22 13:50:42;;;;;;;;;;;19.10;55.90;;;;;;6132450;29;20254;-71
2023/04/22 13:53:43;;;;;;;;;;;19.10;55.90;;;;;;6132115;29;19938;-71
2023/04/22 13:56:43;;;;;;;;;;;19.10;55.90;;;;;;6131440;29;19966;-72
2023/04/22 13:59:44;;;;;;;;;;;19.10;55.90;;;;;;6149321;29;19921;-72
2023/04/22 14:02:45;;;;;;;;;;;19.10;55.90;;;;;;6148998;29;19911;-71
2023/04/22 14:05:45;;;;;;;;;;;19.10;56.00;;;;;;6147505;28;19927;-71
2023/04/22 14:08:46;;;;;;;;;;;19.10;56.00;;;;;;6131756;29;19958;-71
2023/04/22 14:11:46;;;;;;;;;;;19.10;56.00;;;;;;6149112;29;19914;-71
2023/04/22 14:14:47;;;;;;;;;;;19.00;55.90;;;;;;6146754;29;19915;-71
2023/04/22 14:17:48;;;;;;;;;;;19.00;55.90;;;;;;6163727;28;20384;-71
2023/04/22 14:20:49;;;;;;;;;;;19.00;55.90;;;;;;6163657;28;19919;-71
2023/04/22 14:23:50;;;;;;;;;;;19.00;55.90;;;;;;6131240;29;19950;-72
2023/04/22 14:26:51;;;;;;;;;;;19.00;55.90;;;;;;6148535;29;20361;-72
2023/04/22 14:29:52;;;;;;;;;;;19.00;55.90;;;;;;6148874;29;19910;-71
2023/04/22 14:32:53;;;;;;;;;;;19.00;55.90;;;;;;6131326;29;19957;-71
2023/04/22 14:35:53;;;;;;;;;;;19.00;56.00;;;;;;6148150;29;19911;-72
2023/04/22 14:38:54;;;;;;;;;;;19.00;56.10;;;;;;6163217;28;19917;-71
2023/04/22 14:41:56;;;;;;;;;;;19.00;56.30;;;;;;6148730;29;19915;-72
2023/04/22 14:44:57;;;;;;;;;;;19.00;56.00;;;;;;6147876;29;20345;-72
2023/04/22 14:47:58;;;;;;;;;;;19.10;56.30;;;;;;6148477;29;19910;-72
2023/04/22 14:50:59;;;;;;;;;;;19.10;56.40;;;;;;6131304;29;19918;-71
2023/04/22 14:54:00;;;;;;;;;;;19.10;56.60;;;;;;6115213;29;20001;-71
2023/04/22 14:57:01;;;;;;;;;;;19.00;56.20;;;;;;6147753;29;19966;-71
2023/04/22 15:00:03;;;;;;;;;;;19.00;56.10;;;;;;6163012;28;19986;-71
2023/04/22 15:03:03;;;;;;;;;;;19.00;56.00;;;;;;6148113;29;20558;-71
2023/04/22 15:06:04;;;;;;;;;;;19.00;56.00;;;;;;6147857;29;19914;-71
2023/04/22 15:09:05;;;;;;;;;;;19.00;56.00;;;;;;6147579;29;19926;-71
2023/04/22 15:12:05;;;;;;;;;;;19.00;56.00;;;;;;6148238;29;19980;-71
2023/04/22 15:15:06;;;;;;;;;;;19.00;55.90;;;;;;6161996;28;20428;-72
2023/04/22 15:18:07;;;;;;;;;;;19.00;55.90;;;;;;6162200;28;19910;-71
2023/04/22 15:21:09;;;;;;;;;;;19.00;55.90;;;;;;6147350;29;19922;-71
2023/04/22 15:24:10;;;;;;;;;;;19.00;55.90;;;;;;6130055;29;19962;-71
2023/04/22 15:27:10;;;;;;;;;;;19.00;55.90;;;;;;6130006;29;20309;-71
2023/04/22 15:30:11;;;;;;;;;;;19.00;55.90;;;;;;6130399;29;19910;-71
2023/04/22 15:33:12;;;;;;;;;;;19.00;56.00;;;;;;6130257;29;19911;-71
2023/04/22 15:36:16;;;;;;;;;;;19.00;55.90;;;;;;6161733;28;19911;-71
2023/04/22 15:39:16;;;;;;;;;;;19.00;55.80;;;;;;6162224;28;19916;-71
2023/04/22 15:42:17;;;;;;;;;;;19.00;55.80;;;;;;6147504;29;19911;-72
2023/04/22 15:45:19;;;;;;;;;;;19.00;56.00;;;;;;6146797;29;20448;-72
2023/04/22 15:48:19;;;;;;;;;;;19.00;56.00;;;;;;6146727;29;20296;-71
2023/04/22 15:51:20;;;;;;;;;;;19.00;56.00;;;;;;6140802;29;19915;-72
2023/04/22 15:54:21;;;;;;;;;;;19.00;56.00;;;;;;6145759;29;19914;-72
2023/04/22 15:57:21;;;;;;;;;;;18.90;56.00;;;;;;6146827;28;20421;-72
2023/04/22 16:00:22;;;;;;;;;;;18.90;56.00;;;;;;6145188;29;19914;-71
2023/04/22 16:03:23;;;;;;;;;;;18.90;56.00;;;;;;6146360;29;20005;-72
2023/04/22 16:06:24;;;;;;;;;;;18.90;56.00;;;;;;6129324;29;19987;-71
2023/04/22 16:09:25;;;;;;;;;;;18.90;56.00;;;;;;6145623;29;19922;-71
2023/04/22 16:12:25;;;;;;;;;;;18.90;56.10;;;;;;6145699;29;19911;-71
2023/04/22 16:15:26;;;;;;;;;;;18.90;56.00;;;;;;6145232;28;19910;-71
2023/04/22 16:18:27;;;;;;;;;;;18.90;56.10;;;;;;6146697;29;19946;-71
2023/04/22 16:21:28;;;;;;;;;;;18.90;56.10;;;;;;6129472;29;19925;-71
2023/04/22 16:24:29;;;;;;;;;;;18.90;56.10;;;;;;6144279;28;20388;-69
2023/04/22 16:27:30;;;;;;;;;;;18.90;56.00;;;;;;6146474;28;19917;-71
2023/04/22 16:30:31;;;;;;;;;;;18.90;56.00;;;;;;6149478;29;19910;-71
2023/04/22 16:33:31;;;;;;;;;;;18.90;56.00;;;;;;6150381;29;19910;-73
2023/04/22 16:36:32;;;;;;;;;;;18.90;56.10;;;;;;6151062;28;19942;-72
2023/04/22 16:39:33;;;;;;;;;;;18.90;56.10;;;;;;6133750;29;19915;-70
2023/04/22 16:42:33;;;;;;;;;;;18.90;56.00;;;;;;6151827;29;20393;-69
2023/04/22 16:45:34;;;;;;;;;;;18.90;56.10;;;;;;6150790;28;19948;-69
2023/04/22 16:48:35;;;;;;;;;;;18.90;56.00;;;;;;6150803;29;19911;-69
2023/04/22 16:51:35;;;;;;;;;;;18.90;56.00;;;;;;6151569;29;19911;-69
2023/04/22 16:54:36;;;;;;;;;;;18.90;56.10;;;;;;6152097;28;19952;-69
2023/04/22 16:57:36;;;;;;;;;;;18.90;56.00;;;;;;6152086;29;19949;-69
2023/04/22 17:00:37;;;;;;;;;;;18.90;56.00;;;;;;6149888;29;20492;-69
2023/04/22 17:03:38;;;;;;;;;;;18.90;56.10;;;;;;6151747;29;19918;-69
2023/04/22 17:06:39;;;;;;;;;;;18.90;56.10;;;;;;6134283;29;20009;-69
2023/04/22 17:09:40;;;;;;;;;;;18.90;56.10;;;;;;6150106;29;19925;-68
2023/04/22 17:12:40;;;;;;;;;;;18.90;56.10;;;;;;6134352;29;19915;-69
2023/04/22 17:15:41;;;;;;;;;;;18.90;56.10;;;;;;6151813;28;19918;-69
2023/04/22 17:18:42;;;;;;;;;;;18.90;56.10;;;;;;6151494;29;19911;-69
2023/04/22 17:21:42;;;;;;;;;;;18.90;56.10;;;;;;6151612;29;19989;-70
2023/04/22 17:24:43;;;;;;;;;;;18.90;56.10;;;;;;6150081;28;19918;-69
2023/04/22 17:27:43;;;;;;;;;;;18.90;56.10;;;;;;6151570;29;19915;-69
2023/04/22 17:30:44;;;;;;;;;;;18.90;56.10;;;;;;6151266;29;19910;-69
2023/04/22 17:33:45;;;;;;;;;;;18.90;56.20;;;;;;6151469;29;19968;-69
2023/04/22 17:36:45;;;;;;;;;;;18.90;56.10;;;;;;6151226;28;19910;-68